sensor_id;sensor_type;location;lat;lon;timestamp;P1;durP1;ratioP1;P2;durP2;ratioP2
16822;SDS011;8528;49.976;11.858;2022-12-11T00:01:18;6.07;;;3.50;;
16822;SDS011;8528;49.976;11.858;2022-12-11T00:03:51;4.93;;;3.40;;
16822;SDS011;8528;49.976;11.858;2022-12-11T00:06:19;3.80;;;3.37;;
16822;SDS011;8528;49.976;11.858;2022-12-11T00:08:50;5.57;;;3.17;;
16822;SDS011;8528;49.976;11.858;2022-12-11T00:11:21;4.23;;;3.00;;
16822;SDS011;8528;49.976;11.858;2022-12-11T00:13:53;4.13;;;3.17;;
16822;SDS011;8528;49.976;11.858;2022-12-11T00:16:20;4.63;;;3.10;;
16822;SDS011;8528;49.976;11.858;2022-12-11T00:18:52;4.10;;;3.30;;
16822;SDS011;8528;49.976;11.858;2022-12-11T00:21:19;4.13;;;2.63;;
16822;SDS011;8528;49.976;11.858;2022-12-11T00:23:46;4.23;;;3.30;;
16822;SDS011;8528;49.976;11.858;2022-12-11T00:26:16;5.13;;;3.40;;
16822;SDS011;8528;49.976;11.858;2022-12-11T00:28:43;4.83;;;2.97;;
16822;SDS011;8528;49.976;11.858;2022-12-11T00:31:12;4.33;;;2.80;;
16822;SDS011;8528;49.976;11.858;2022-12-11T00:33:50;5.80;;;3.00;;
16822;SDS011;8528;49.976;11.858;2022-12-11T00:36:19;4.40;;;2.87;;
16822;SDS011;8528;49.976;11.858;2022-12-11T00:38:51;4.03;;;2.83;;
16822;SDS011;8528;49.976;11.858;2022-12-11T00:41:22;3.77;;;2.67;;
16822;SDS011;8528;49.976;11.858;2022-12-11T00:43:52;4.13;;;2.73;;
16822;SDS011;8528;49.976;11.858;2022-12-11T00:46:19;3.90;;;2.90;;
16822;SDS011;8528;49.976;11.858;2022-12-11T00:48:46;4.13;;;2.90;;
16822;SDS011;8528;49.976;11.858;2022-12-11T00:51:15;4.70;;;3.00;;
16822;SDS011;8528;49.976;11.858;2022-12-11T00:53:46;3.93;;;2.70;;
16822;SDS011;8528;49.976;11.858;2022-12-11T00:56:14;3.23;;;2.63;;
16822;SDS011;8528;49.976;11.858;2022-12-11T00:58:44;4.07;;;2.83;;
16822;SDS011;8528;49.976;11.858;2022-12-11T01:01:15;3.57;;;2.73;;
16822;SDS011;8528;49.976;11.858;2022-12-11T01:03:49;4.40;;;2.90;;
16822;SDS011;8528;49.976;11.858;2022-12-11T01:06:21;3.53;;;2.73;;
16822;SDS011;8528;49.976;11.858;2022-12-11T01:08:49;4.23;;;3.00;;
16822;SDS011;8528;49.976;11.858;2022-12-11T01:11:40;3.30;;;2.53;;
16822;SDS011;8528;49.976;11.858;2022-12-11T01:14:09;4.43;;;3.13;;
16822;SDS011;8528;49.976;11.858;2022-12-11T01:16:36;4.80;;;3.27;;
16822;SDS011;8528;49.976;11.858;2022-12-11T01:19:04;3.53;;;2.77;;
16822;SDS011;8528;49.976;11.858;2022-12-11T01:21:31;4.23;;;3.07;;
16822;SDS011;8528;49.976;11.858;2022-12-11T01:24:00;4.73;;;3.50;;
16822;SDS011;8528;49.976;11.858;2022-12-11T01:26:27;4.30;;;2.57;;
16822;SDS011;8528;49.976;11.858;2022-12-11T01:28:58;4.40;;;3.00;;
16822;SDS011;8528;49.976;11.858;2022-12-11T01:31:28;3.73;;;2.70;;
16822;SDS011;8528;49.976;11.858;2022-12-11T01:33:58;4.00;;;3.20;;
16822;SDS011;8528;49.976;11.858;2022-12-11T01:36:24;3.73;;;2.80;;
16822;SDS011;8528;49.976;11.858;2022-12-11T01:38:57;3.30;;;2.73;;
16822;SDS011;8528;49.976;11.858;2022-12-11T01:41:24;4.00;;;3.20;;
16822;SDS011;8528;49.976;11.858;2022-12-11T01:46:42;3.53;;;2.70;;
16822;SDS011;8528;49.976;11.858;2022-12-11T01:49:14;3.33;;;2.97;;
16822;SDS011;8528;49.976;11.858;2022-12-11T01:54:25;3.97;;;3.07;;
16822;SDS011;8528;49.976;11.858;2022-12-11T01:56:58;4.40;;;2.77;;
16822;SDS011;8528;49.976;11.858;2022-12-11T01:59:30;4.70;;;3.03;;
16822;SDS011;8528;49.976;11.858;2022-12-11T02:02:03;3.60;;;2.80;;
16822;SDS011;8528;49.976;11.858;2022-12-11T02:04:46;3.77;;;2.80;;
16822;SDS011;8528;49.976;11.858;2022-12-11T02:07:14;2.97;;;2.53;;
16822;SDS011;8528;49.976;11.858;2022-12-11T02:09:41;3.73;;;2.67;;
16822;SDS011;8528;49.976;11.858;2022-12-11T02:18:30;4.70;;;3.10;;
16822;SDS011;8528;49.976;11.858;2022-12-11T02:21:19;3.87;;;2.90;;
16822;SDS011;8528;49.976;11.858;2022-12-11T02:27:02;4.27;;;2.70;;
16822;SDS011;8528;49.976;11.858;2022-12-11T02:29:43;5.43;;;3.40;;
16822;SDS011;8528;49.976;11.858;2022-12-11T02:32:17;4.97;;;3.27;;
16822;SDS011;8528;49.976;11.858;2022-12-11T02:34:55;3.67;;;2.70;;
16822;SDS011;8528;49.976;11.858;2022-12-11T02:37:33;4.83;;;3.03;;
16822;SDS011;8528;49.976;11.858;2022-12-11T02:40:03;4.40;;;3.00;;
16822;SDS011;8528;49.976;11.858;2022-12-11T02:42:34;5.10;;;3.23;;
16822;SDS011;8528;49.976;11.858;2022-12-11T02:45:04;4.47;;;3.20;;
16822;SDS011;8528;49.976;11.858;2022-12-11T02:47:34;3.70;;;2.80;;
16822;SDS011;8528;49.976;11.858;2022-12-11T02:50:06;3.50;;;3.00;;
16822;SDS011;8528;49.976;11.858;2022-12-11T02:52:37;4.33;;;2.90;;
16822;SDS011;8528;49.976;11.858;2022-12-11T02:55:06;3.90;;;2.87;;
16822;SDS011;8528;49.976;11.858;2022-12-11T03:00:25;4.23;;;3.17;;
16822;SDS011;8528;49.976;11.858;2022-12-11T03:02:52;4.43;;;3.00;;
16822;SDS011;8528;49.976;11.858;2022-12-11T03:05:22;4.13;;;3.07;;
16822;SDS011;8528;49.976;11.858;2022-12-11T03:07:52;3.67;;;2.90;;
16822;SDS011;8528;49.976;11.858;2022-12-11T03:10:19;4.63;;;3.00;;
16822;SDS011;8528;49.976;11.858;2022-12-11T03:12:50;4.80;;;3.00;;
16822;SDS011;8528;49.976;11.858;2022-12-11T03:15:20;3.87;;;3.10;;
16822;SDS011;8528;49.976;11.858;2022-12-11T03:20:46;5.00;;;2.77;;
16822;SDS011;8528;49.976;11.858;2022-12-11T03:26:35;5.23;;;3.27;;
16822;SDS011;8528;49.976;11.858;2022-12-11T03:29:25;5.17;;;2.83;;
16822;SDS011;8528;49.976;11.858;2022-12-11T03:32:03;4.03;;;2.63;;
16822;SDS011;8528;49.976;11.858;2022-12-11T03:35:02;3.13;;;2.60;;
16822;SDS011;8528;49.976;11.858;2022-12-11T03:37:35;3.30;;;2.60;;
16822;SDS011;8528;49.976;11.858;2022-12-11T03:40:09;3.80;;;2.70;;
16822;SDS011;8528;49.976;11.858;2022-12-11T03:42:40;3.17;;;2.53;;
16822;SDS011;8528;49.976;11.858;2022-12-11T03:45:12;3.53;;;2.60;;
16822;SDS011;8528;49.976;11.858;2022-12-11T03:47:42;2.67;;;2.20;;
16822;SDS011;8528;49.976;11.858;2022-12-11T03:50:11;3.40;;;2.50;;
16822;SDS011;8528;49.976;11.858;2022-12-11T03:52:42;3.27;;;2.57;;
16822;SDS011;8528;49.976;11.858;2022-12-11T03:55:15;4.20;;;2.70;;
16822;SDS011;8528;49.976;11.858;2022-12-11T03:57:43;3.27;;;2.60;;
16822;SDS011;8528;49.976;11.858;2022-12-11T04:00:11;4.07;;;2.70;;
16822;SDS011;8528;49.976;11.858;2022-12-11T04:02:41;2.73;;;2.17;;
16822;SDS011;8528;49.976;11.858;2022-12-11T04:05:11;3.10;;;2.37;;
16822;SDS011;8528;49.976;11.858;2022-12-11T04:07:39;3.10;;;2.47;;
16822;SDS011;8528;49.976;11.858;2022-12-11T04:10:06;3.63;;;3.03;;
16822;SDS011;8528;49.976;11.858;2022-12-11T04:12:33;3.23;;;2.50;;
16822;SDS011;8528;49.976;11.858;2022-12-11T04:15:00;4.13;;;2.60;;
16822;SDS011;8528;49.976;11.858;2022-12-11T04:17:30;2.53;;;2.20;;
16822;SDS011;8528;49.976;11.858;2022-12-11T04:20:18;3.40;;;2.60;;
16822;SDS011;8528;49.976;11.858;2022-12-11T04:23:11;3.47;;;2.43;;
16822;SDS011;8528;49.976;11.858;2022-12-11T04:26:05;2.97;;;2.40;;
16822;SDS011;8528;49.976;11.858;2022-12-11T04:28:36;2.63;;;2.27;;
16822;SDS011;8528;49.976;11.858;2022-12-11T04:31:04;3.23;;;2.60;;
16822;SDS011;8528;49.976;11.858;2022-12-11T04:33:32;2.73;;;1.90;;
16822;SDS011;8528;49.976;11.858;2022-12-11T04:36:08;2.63;;;2.10;;
16822;SDS011;8528;49.976;11.858;2022-12-11T04:38:38;3.53;;;2.40;;
16822;SDS011;8528;49.976;11.858;2022-12-11T04:41:07;3.87;;;2.53;;
16822;SDS011;8528;49.976;11.858;2022-12-11T04:43:36;3.40;;;2.20;;
16822;SDS011;8528;49.976;11.858;2022-12-11T04:46:15;2.80;;;2.33;;
16822;SDS011;8528;49.976;11.858;2022-12-11T04:48:45;3.83;;;2.43;;
16822;SDS011;8528;49.976;11.858;2022-12-11T04:51:22;3.23;;;2.63;;
16822;SDS011;8528;49.976;11.858;2022-12-11T04:53:51;2.27;;;2.00;;
16822;SDS011;8528;49.976;11.858;2022-12-11T04:56:19;3.00;;;2.33;;
16822;SDS011;8528;49.976;11.858;2022-12-11T04:58:48;3.13;;;2.30;;
16822;SDS011;8528;49.976;11.858;2022-12-11T05:01:16;3.10;;;2.30;;
16822;SDS011;8528;49.976;11.858;2022-12-11T05:03:45;3.30;;;2.37;;
16822;SDS011;8528;49.976;11.858;2022-12-11T05:06:12;2.63;;;2.23;;
16822;SDS011;8528;49.976;11.858;2022-12-11T05:08:42;3.57;;;2.30;;
16822;SDS011;8528;49.976;11.858;2022-12-11T05:11:11;3.43;;;2.40;;
16822;SDS011;8528;49.976;11.858;2022-12-11T05:13:40;3.60;;;2.80;;
16822;SDS011;8528;49.976;11.858;2022-12-11T05:16:14;2.60;;;2.30;;
16822;SDS011;8528;49.976;11.858;2022-12-11T05:18:42;3.07;;;2.30;;
16822;SDS011;8528;49.976;11.858;2022-12-11T05:21:12;2.73;;;2.30;;
16822;SDS011;8528;49.976;11.858;2022-12-11T05:23:40;3.07;;;2.30;;
16822;SDS011;8528;49.976;11.858;2022-12-11T05:26:15;2.47;;;2.10;;
16822;SDS011;8528;49.976;11.858;2022-12-11T05:28:52;2.50;;;2.17;;
16822;SDS011;8528;49.976;11.858;2022-12-11T05:31:21;2.97;;;2.10;;
16822;SDS011;8528;49.976;11.858;2022-12-11T05:33:50;3.43;;;2.43;;
16822;SDS011;8528;49.976;11.858;2022-12-11T05:36:20;3.00;;;2.50;;
16822;SDS011;8528;49.976;11.858;2022-12-11T05:38:49;2.60;;;2.20;;
16822;SDS011;8528;49.976;11.858;2022-12-11T05:41:18;3.17;;;2.30;;
16822;SDS011;8528;49.976;11.858;2022-12-11T05:43:46;3.70;;;2.50;;
16822;SDS011;8528;49.976;11.858;2022-12-11T05:46:26;2.97;;;2.40;;
16822;SDS011;8528;49.976;11.858;2022-12-11T05:48:56;3.67;;;2.80;;
16822;SDS011;8528;49.976;11.858;2022-12-11T05:51:28;2.77;;;2.50;;
16822;SDS011;8528;49.976;11.858;2022-12-11T05:53:58;3.00;;;2.10;;
16822;SDS011;8528;49.976;11.858;2022-12-11T05:56:29;3.10;;;2.33;;
16822;SDS011;8528;49.976;11.858;2022-12-11T05:58:58;2.93;;;2.30;;
16822;SDS011;8528;49.976;11.858;2022-12-11T06:01:30;3.77;;;2.57;;
16822;SDS011;8528;49.976;11.858;2022-12-11T06:04:13;3.53;;;2.50;;
16822;SDS011;8528;49.976;11.858;2022-12-11T06:06:40;3.73;;;2.13;;
16822;SDS011;8528;49.976;11.858;2022-12-11T06:09:15;3.57;;;2.60;;
16822;SDS011;8528;49.976;11.858;2022-12-11T06:11:42;2.90;;;2.40;;
16822;SDS011;8528;49.976;11.858;2022-12-11T06:14:10;3.10;;;2.20;;
16822;SDS011;8528;49.976;11.858;2022-12-11T06:16:40;3.17;;;2.37;;
16822;SDS011;8528;49.976;11.858;2022-12-11T06:19:13;2.93;;;2.03;;
16822;SDS011;8528;49.976;11.858;2022-12-11T06:21:44;4.23;;;2.23;;
16822;SDS011;8528;49.976;11.858;2022-12-11T06:24:17;3.00;;;2.50;;
16822;SDS011;8528;49.976;11.858;2022-12-11T06:26:47;3.30;;;2.57;;
16822;SDS011;8528;49.976;11.858;2022-12-11T06:29:14;3.63;;;2.63;;
16822;SDS011;8528;49.976;11.858;2022-12-11T06:31:41;4.03;;;2.63;;
16822;SDS011;8528;49.976;11.858;2022-12-11T06:34:10;3.90;;;2.70;;
16822;SDS011;8528;49.976;11.858;2022-12-11T06:36:41;3.57;;;3.00;;
16822;SDS011;8528;49.976;11.858;2022-12-11T06:39:08;4.03;;;2.60;;
16822;SDS011;8528;49.976;11.858;2022-12-11T06:41:35;3.93;;;2.73;;
16822;SDS011;8528;49.976;11.858;2022-12-11T06:44:02;2.80;;;2.60;;
16822;SDS011;8528;49.976;11.858;2022-12-11T06:46:29;3.03;;;2.60;;
16822;SDS011;8528;49.976;11.858;2022-12-11T06:48:56;2.83;;;2.30;;
16822;SDS011;8528;49.976;11.858;2022-12-11T06:51:23;3.80;;;2.80;;
16822;SDS011;8528;49.976;11.858;2022-12-11T06:53:54;4.83;;;3.23;;
16822;SDS011;8528;49.976;11.858;2022-12-11T06:56:24;3.20;;;2.87;;
16822;SDS011;8528;49.976;11.858;2022-12-11T06:58:51;3.70;;;3.10;;
16822;SDS011;8528;49.976;11.858;2022-12-11T07:01:23;5.03;;;3.13;;
16822;SDS011;8528;49.976;11.858;2022-12-11T07:03:52;3.80;;;3.03;;
16822;SDS011;8528;49.976;11.858;2022-12-11T07:06:20;5.00;;;3.00;;
16822;SDS011;8528;49.976;11.858;2022-12-11T07:08:47;3.97;;;2.90;;
16822;SDS011;8528;49.976;11.858;2022-12-11T07:11:15;3.70;;;3.00;;
16822;SDS011;8528;49.976;11.858;2022-12-11T07:13:43;3.80;;;3.20;;
16822;SDS011;8528;49.976;11.858;2022-12-11T07:16:13;4.77;;;3.00;;
16822;SDS011;8528;49.976;11.858;2022-12-11T07:18:43;4.23;;;2.97;;
16822;SDS011;8528;49.976;11.858;2022-12-11T07:21:16;4.07;;;3.20;;
16822;SDS011;8528;49.976;11.858;2022-12-11T07:23:46;3.93;;;3.23;;
16822;SDS011;8528;49.976;11.858;2022-12-11T07:26:14;3.87;;;2.90;;
16822;SDS011;8528;49.976;11.858;2022-12-11T07:28:44;4.33;;;3.23;;
16822;SDS011;8528;49.976;11.858;2022-12-11T07:31:12;4.53;;;3.47;;
16822;SDS011;8528;49.976;11.858;2022-12-11T07:33:45;3.37;;;3.00;;
16822;SDS011;8528;49.976;11.858;2022-12-11T07:36:12;4.40;;;3.20;;
16822;SDS011;8528;49.976;11.858;2022-12-11T07:38:40;4.93;;;3.43;;
16822;SDS011;8528;49.976;11.858;2022-12-11T07:41:13;4.87;;;3.43;;
16822;SDS011;8528;49.976;11.858;2022-12-11T07:43:50;5.73;;;3.20;;
16822;SDS011;8528;49.976;11.858;2022-12-11T07:46:18;5.37;;;3.33;;
16822;SDS011;8528;49.976;11.858;2022-12-11T07:48:50;4.17;;;3.07;;
16822;SDS011;8528;49.976;11.858;2022-12-11T07:51:32;3.87;;;3.13;;
16822;SDS011;8528;49.976;11.858;2022-12-11T07:54:04;5.07;;;3.30;;
16822;SDS011;8528;49.976;11.858;2022-12-11T07:56:55;4.87;;;3.20;;
16822;SDS011;8528;49.976;11.858;2022-12-11T07:59:25;4.20;;;3.20;;
16822;SDS011;8528;49.976;11.858;2022-12-11T08:01:51;5.27;;;3.50;;
16822;SDS011;8528;49.976;11.858;2022-12-11T08:04:19;4.57;;;3.13;;
16822;SDS011;8528;49.976;11.858;2022-12-11T08:06:47;5.27;;;3.30;;
16822;SDS011;8528;49.976;11.858;2022-12-11T08:09:15;5.20;;;3.50;;
16822;SDS011;8528;49.976;11.858;2022-12-11T08:11:49;5.50;;;3.27;;
16822;SDS011;8528;49.976;11.858;2022-12-11T08:14:17;4.60;;;3.30;;
16822;SDS011;8528;49.976;11.858;2022-12-11T08:16:45;4.10;;;3.20;;
16822;SDS011;8528;49.976;11.858;2022-12-11T08:19:14;5.23;;;3.20;;
16822;SDS011;8528;49.976;11.858;2022-12-11T08:21:41;4.60;;;3.23;;
16822;SDS011;8528;49.976;11.858;2022-12-11T08:24:08;3.53;;;3.07;;
16822;SDS011;8528;49.976;11.858;2022-12-11T08:26:41;4.50;;;3.30;;
16822;SDS011;8528;49.976;11.858;2022-12-11T08:29:14;4.40;;;3.20;;
16822;SDS011;8528;49.976;11.858;2022-12-11T08:31:41;4.73;;;3.33;;
16822;SDS011;8528;49.976;11.858;2022-12-11T08:34:08;4.27;;;3.07;;
16822;SDS011;8528;49.976;11.858;2022-12-11T08:36:39;4.13;;;3.20;;
16822;SDS011;8528;49.976;11.858;2022-12-11T08:39:06;4.63;;;3.40;;
16822;SDS011;8528;49.976;11.858;2022-12-11T08:41:33;6.77;;;3.80;;
16822;SDS011;8528;49.976;11.858;2022-12-11T08:44:03;5.47;;;3.60;;
16822;SDS011;8528;49.976;11.858;2022-12-11T08:46:34;4.97;;;3.70;;
16822;SDS011;8528;49.976;11.858;2022-12-11T08:49:04;4.77;;;3.23;;
16822;SDS011;8528;49.976;11.858;2022-12-11T08:51:34;5.90;;;3.20;;
16822;SDS011;8528;49.976;11.858;2022-12-11T08:54:09;3.30;;;2.93;;
16822;SDS011;8528;49.976;11.858;2022-12-11T08:56:36;3.27;;;2.60;;
16822;SDS011;8528;49.976;11.858;2022-12-11T08:59:06;4.83;;;3.40;;
16822;SDS011;8528;49.976;11.858;2022-12-11T09:01:33;4.63;;;3.50;;
16822;SDS011;8528;49.976;11.858;2022-12-11T09:04:00;5.23;;;3.80;;
16822;SDS011;8528;49.976;11.858;2022-12-11T09:06:31;4.20;;;3.37;;
16822;SDS011;8528;49.976;11.858;2022-12-11T09:09:03;4.23;;;3.13;;
16822;SDS011;8528;49.976;11.858;2022-12-11T09:11:31;3.50;;;2.63;;
16822;SDS011;8528;49.976;11.858;2022-12-11T09:14:03;3.40;;;2.90;;
16822;SDS011;8528;49.976;11.858;2022-12-11T09:16:33;5.10;;;3.40;;
16822;SDS011;8528;49.976;11.858;2022-12-11T09:19:03;4.43;;;3.03;;
16822;SDS011;8528;49.976;11.858;2022-12-11T09:21:38;4.07;;;3.30;;
16822;SDS011;8528;49.976;11.858;2022-12-11T09:24:05;4.10;;;3.30;;
16822;SDS011;8528;49.976;11.858;2022-12-11T09:26:34;4.77;;;3.20;;
16822;SDS011;8528;49.976;11.858;2022-12-11T09:29:01;3.87;;;3.00;;
16822;SDS011;8528;49.976;11.858;2022-12-11T09:31:30;3.93;;;2.80;;
16822;SDS011;8528;49.976;11.858;2022-12-11T09:34:01;4.33;;;3.27;;
16822;SDS011;8528;49.976;11.858;2022-12-11T09:36:29;4.90;;;3.27;;
16822;SDS011;8528;49.976;11.858;2022-12-11T09:39:06;4.37;;;3.47;;
16822;SDS011;8528;49.976;11.858;2022-12-11T09:41:38;3.90;;;2.93;;
16822;SDS011;8528;49.976;11.858;2022-12-11T09:47:15;4.80;;;3.03;;
16822;SDS011;8528;49.976;11.858;2022-12-11T09:49:47;4.67;;;3.10;;
16822;SDS011;8528;49.976;11.858;2022-12-11T09:54:53;3.17;;;2.80;;
16822;SDS011;8528;49.976;11.858;2022-12-11T09:57:37;5.13;;;3.10;;
16822;SDS011;8528;49.976;11.858;2022-12-11T10:00:31;4.43;;;2.97;;
16822;SDS011;8528;49.976;11.858;2022-12-11T10:12:07;3.77;;;3.10;;
16822;SDS011;8528;49.976;11.858;2022-12-11T10:14:50;4.63;;;2.90;;
16822;SDS011;8528;49.976;11.858;2022-12-11T10:17:29;5.70;;;3.10;;
16822;SDS011;8528;49.976;11.858;2022-12-11T10:23:01;5.47;;;3.37;;
16822;SDS011;8528;49.976;11.858;2022-12-11T10:25:41;5.33;;;3.27;;
16822;SDS011;8528;49.976;11.858;2022-12-11T10:28:14;4.47;;;3.30;;
16822;SDS011;8528;49.976;11.858;2022-12-11T10:33:31;3.60;;;2.93;;
16822;SDS011;8528;49.976;11.858;2022-12-11T10:36:02;4.87;;;3.40;;
16822;SDS011;8528;49.976;11.858;2022-12-11T10:38:33;4.57;;;3.50;;
16822;SDS011;8528;49.976;11.858;2022-12-11T10:41:08;5.97;;;3.63;;
16822;SDS011;8528;49.976;11.858;2022-12-11T10:43:40;4.93;;;3.23;;
16822;SDS011;8528;49.976;11.858;2022-12-11T10:46:13;5.47;;;3.63;;
16822;SDS011;8528;49.976;11.858;2022-12-11T10:51:23;5.90;;;4.07;;
16822;SDS011;8528;49.976;11.858;2022-12-11T10:57:06;6.23;;;3.57;;
16822;SDS011;8528;49.976;11.858;2022-12-11T10:59:43;4.70;;;3.30;;
16822;SDS011;8528;49.976;11.858;2022-12-11T11:02:22;5.80;;;3.90;;
16822;SDS011;8528;49.976;11.858;2022-12-11T11:04:58;5.23;;;3.43;;
16822;SDS011;8528;49.976;11.858;2022-12-11T11:07:27;6.20;;;3.97;;
16822;SDS011;8528;49.976;11.858;2022-12-11T11:10:15;4.83;;;3.57;;
16822;SDS011;8528;49.976;11.858;2022-12-11T11:12:46;5.53;;;3.93;;
16822;SDS011;8528;49.976;11.858;2022-12-11T11:15:17;5.37;;;3.63;;
16822;SDS011;8528;49.976;11.858;2022-12-11T11:17:51;4.17;;;3.47;;
16822;SDS011;8528;49.976;11.858;2022-12-11T11:20:25;5.33;;;3.57;;
16822;SDS011;8528;49.976;11.858;2022-12-11T11:22:59;6.03;;;4.00;;
16822;SDS011;8528;49.976;11.858;2022-12-11T11:25:28;4.20;;;3.40;;
16822;SDS011;8528;49.976;11.858;2022-12-11T11:28:05;4.97;;;3.53;;
16822;SDS011;8528;49.976;11.858;2022-12-11T11:30:57;5.53;;;3.77;;
16822;SDS011;8528;49.976;11.858;2022-12-11T11:33:25;7.93;;;4.33;;
16822;SDS011;8528;49.976;11.858;2022-12-11T11:36:18;5.27;;;3.90;;
16822;SDS011;8528;49.976;11.858;2022-12-11T11:41:56;5.67;;;3.87;;
16822;SDS011;8528;49.976;11.858;2022-12-11T11:44:28;5.83;;;4.10;;
16822;SDS011;8528;49.976;11.858;2022-12-11T11:47:02;6.40;;;4.00;;
16822;SDS011;8528;49.976;11.858;2022-12-11T11:55:08;6.57;;;4.37;;
16822;SDS011;8528;49.976;11.858;2022-12-11T12:00:39;5.83;;;3.90;;
16822;SDS011;8528;49.976;11.858;2022-12-11T12:03:13;5.57;;;3.53;;
16822;SDS011;8528;49.976;11.858;2022-12-11T12:05:44;5.50;;;3.63;;
16822;SDS011;8528;49.976;11.858;2022-12-11T12:14:34;5.93;;;3.70;;
16822;SDS011;8528;49.976;11.858;2022-12-11T12:23:34;4.50;;;3.90;;
16822;SDS011;8528;49.976;11.858;2022-12-11T12:26:28;4.90;;;3.37;;
16822;SDS011;8528;49.976;11.858;2022-12-11T12:29:08;5.27;;;3.90;;
16822;SDS011;8528;49.976;11.858;2022-12-11T12:40:33;4.57;;;3.77;;
16822;SDS011;8528;49.976;11.858;2022-12-11T12:43:28;5.93;;;3.70;;
16822;SDS011;8528;49.976;11.858;2022-12-11T12:49:33;4.80;;;3.43;;
16822;SDS011;8528;49.976;11.858;2022-12-11T12:52:14;5.97;;;4.23;;
16822;SDS011;8528;49.976;11.858;2022-12-11T12:54:45;4.37;;;3.50;;
16822;SDS011;8528;49.976;11.858;2022-12-11T12:57:34;4.83;;;3.60;;
16822;SDS011;8528;49.976;11.858;2022-12-11T13:00:12;4.97;;;3.43;;
16822;SDS011;8528;49.976;11.858;2022-12-11T13:02:50;5.97;;;3.70;;
16822;SDS011;8528;49.976;11.858;2022-12-11T13:05:23;4.50;;;3.50;;
16822;SDS011;8528;49.976;11.858;2022-12-11T13:07:54;6.17;;;4.20;;
16822;SDS011;8528;49.976;11.858;2022-12-11T13:10:36;4.30;;;3.30;;
16822;SDS011;8528;49.976;11.858;2022-12-11T13:13:05;6.23;;;3.77;;
16822;SDS011;8528;49.976;11.858;2022-12-11T13:18:51;4.87;;;3.27;;
16822;SDS011;8528;49.976;11.858;2022-12-11T13:24:33;6.07;;;4.00;;
16822;SDS011;8528;49.976;11.858;2022-12-11T13:26:53;4.63;;;3.57;;
16822;SDS011;8528;49.976;11.858;2022-12-11T13:34:50;7.40;;;3.60;;
16822;SDS011;8528;49.976;11.858;2022-12-11T13:37:28;7.10;;;4.20;;
16822;SDS011;8528;49.976;11.858;2022-12-11T13:40:04;5.00;;;3.93;;
16822;SDS011;8528;49.976;11.858;2022-12-11T13:42:51;4.83;;;3.97;;
16822;SDS011;8528;49.976;11.858;2022-12-11T13:48:21;5.63;;;4.00;;
16822;SDS011;8528;49.976;11.858;2022-12-11T13:50:54;6.73;;;4.53;;
16822;SDS011;8528;49.976;11.858;2022-12-11T13:53:23;7.60;;;4.70;;
16822;SDS011;8528;49.976;11.858;2022-12-11T13:56:00;7.03;;;4.60;;
16822;SDS011;8528;49.976;11.858;2022-12-11T13:58:29;7.87;;;4.43;;
16822;SDS011;8528;49.976;11.858;2022-12-11T14:04:06;7.53;;;4.17;;
16822;SDS011;8528;49.976;11.858;2022-12-11T14:06:37;6.07;;;4.10;;
16822;SDS011;8528;49.976;11.858;2022-12-11T14:09:05;8.57;;;4.23;;
16822;SDS011;8528;49.976;11.858;2022-12-11T14:11:34;7.87;;;4.77;;
16822;SDS011;8528;49.976;11.858;2022-12-11T14:14:04;7.53;;;4.07;;
16822;SDS011;8528;49.976;11.858;2022-12-11T14:16:33;4.73;;;3.90;;
16822;SDS011;8528;49.976;11.858;2022-12-11T14:19:07;7.93;;;4.47;;
16822;SDS011;8528;49.976;11.858;2022-12-11T14:21:39;7.50;;;3.90;;
16822;SDS011;8528;49.976;11.858;2022-12-11T14:24:09;5.60;;;3.77;;
16822;SDS011;8528;49.976;11.858;2022-12-11T14:26:38;5.70;;;4.27;;
16822;SDS011;8528;49.976;11.858;2022-12-11T14:29:05;4.80;;;3.53;;
16822;SDS011;8528;49.976;11.858;2022-12-11T14:31:36;5.80;;;3.90;;
16822;SDS011;8528;49.976;11.858;2022-12-11T14:34:10;5.13;;;3.80;;
16822;SDS011;8528;49.976;11.858;2022-12-11T14:36:41;5.50;;;3.37;;
16822;SDS011;8528;49.976;11.858;2022-12-11T14:39:12;6.10;;;3.50;;
16822;SDS011;8528;49.976;11.858;2022-12-11T14:44:15;6.27;;;4.30;;
16822;SDS011;8528;49.976;11.858;2022-12-11T14:46:47;6.80;;;4.53;;
16822;SDS011;8528;49.976;11.858;2022-12-11T14:49:23;8.07;;;4.83;;
16822;SDS011;8528;49.976;11.858;2022-12-11T14:51:57;5.80;;;4.33;;
16822;SDS011;8528;49.976;11.858;2022-12-11T14:54:31;9.63;;;5.00;;
16822;SDS011;8528;49.976;11.858;2022-12-11T14:57:05;6.60;;;4.90;;
16822;SDS011;8528;49.976;11.858;2022-12-11T14:59:38;6.27;;;4.07;;
16822;SDS011;8528;49.976;11.858;2022-12-11T15:02:20;7.00;;;4.57;;
16822;SDS011;8528;49.976;11.858;2022-12-11T15:05:00;8.27;;;4.87;;
16822;SDS011;8528;49.976;11.858;2022-12-11T15:07:31;6.47;;;4.63;;
16822;SDS011;8528;49.976;11.858;2022-12-11T15:09:59;5.50;;;4.03;;
16822;SDS011;8528;49.976;11.858;2022-12-11T15:12:25;6.87;;;4.80;;
16822;SDS011;8528;49.976;11.858;2022-12-11T15:14:57;7.10;;;4.50;;
16822;SDS011;8528;49.976;11.858;2022-12-11T15:17:31;8.40;;;4.53;;
16822;SDS011;8528;49.976;11.858;2022-12-11T15:20:06;8.27;;;5.17;;
16822;SDS011;8528;49.976;11.858;2022-12-11T15:22:37;7.50;;;5.07;;
16822;SDS011;8528;49.976;11.858;2022-12-11T15:25:15;6.90;;;4.83;;
16822;SDS011;8528;49.976;11.858;2022-12-11T15:27:51;8.07;;;4.87;;
16822;SDS011;8528;49.976;11.858;2022-12-11T15:35:36;10.77;;;5.43;;
16822;SDS011;8528;49.976;11.858;2022-12-11T15:38:03;9.33;;;5.53;;
16822;SDS011;8528;49.976;11.858;2022-12-11T15:40:31;9.27;;;6.10;;
16822;SDS011;8528;49.976;11.858;2022-12-11T15:42:59;8.93;;;5.83;;
16822;SDS011;8528;49.976;11.858;2022-12-11T15:45:27;9.07;;;6.13;;
16822;SDS011;8528;49.976;11.858;2022-12-11T15:47:54;9.30;;;5.73;;
16822;SDS011;8528;49.976;11.858;2022-12-11T15:50:26;6.90;;;5.07;;
16822;SDS011;8528;49.976;11.858;2022-12-11T15:52:56;7.03;;;5.23;;
16822;SDS011;8528;49.976;11.858;2022-12-11T15:55:24;7.20;;;5.50;;
16822;SDS011;8528;49.976;11.858;2022-12-11T15:58:00;8.10;;;5.23;;
16822;SDS011;8528;49.976;11.858;2022-12-11T16:00:28;8.03;;;5.50;;
16822;SDS011;8528;49.976;11.858;2022-12-11T16:02:56;8.47;;;5.47;;
16822;SDS011;8528;49.976;11.858;2022-12-11T16:05:23;8.30;;;5.07;;
16822;SDS011;8528;49.976;11.858;2022-12-11T16:07:51;8.70;;;5.60;;
16822;SDS011;8528;49.976;11.858;2022-12-11T16:10:23;10.07;;;6.27;;
16822;SDS011;8528;49.976;11.858;2022-12-11T16:12:52;9.67;;;5.63;;
16822;SDS011;8528;49.976;11.858;2022-12-11T16:15:25;8.33;;;4.80;;
16822;SDS011;8528;49.976;11.858;2022-12-11T16:17:59;8.93;;;5.93;;
16822;SDS011;8528;49.976;11.858;2022-12-11T16:20:30;6.23;;;4.50;;
16822;SDS011;8528;49.976;11.858;2022-12-11T16:22:57;6.93;;;5.00;;
16822;SDS011;8528;49.976;11.858;2022-12-11T16:25:25;8.47;;;4.53;;
16822;SDS011;8528;49.976;11.858;2022-12-11T16:27:56;8.80;;;4.50;;
16822;SDS011;8528;49.976;11.858;2022-12-11T16:30:27;6.87;;;4.63;;
16822;SDS011;8528;49.976;11.858;2022-12-11T16:32:57;6.17;;;4.20;;
16822;SDS011;8528;49.976;11.858;2022-12-11T16:35:24;8.17;;;4.53;;
16822;SDS011;8528;49.976;11.858;2022-12-11T16:37:51;7.17;;;4.60;;
16822;SDS011;8528;49.976;11.858;2022-12-11T16:40:18;6.77;;;4.30;;
16822;SDS011;8528;49.976;11.858;2022-12-11T16:42:46;6.43;;;4.50;;
16822;SDS011;8528;49.976;11.858;2022-12-11T16:45:18;6.20;;;4.10;;
16822;SDS011;8528;49.976;11.858;2022-12-11T16:47:48;6.20;;;4.10;;
16822;SDS011;8528;49.976;11.858;2022-12-11T16:50:15;6.73;;;4.03;;
16822;SDS011;8528;49.976;11.858;2022-12-11T16:52:48;5.07;;;3.63;;
16822;SDS011;8528;49.976;11.858;2022-12-11T16:55:15;7.13;;;3.93;;
16822;SDS011;8528;49.976;11.858;2022-12-11T16:57:49;5.60;;;4.17;;
16822;SDS011;8528;49.976;11.858;2022-12-11T17:00:16;5.50;;;3.70;;
16822;SDS011;8528;49.976;11.858;2022-12-11T17:02:43;5.73;;;3.73;;
16822;SDS011;8528;49.976;11.858;2022-12-11T17:05:13;6.20;;;3.90;;
16822;SDS011;8528;49.976;11.858;2022-12-11T17:07:42;6.07;;;3.90;;